createdAt,value
2018-08-11T00:52:51.253Z,21.00
2018-08-11T00:55:03.380Z,20.70
2018-08-11T00:57:14.440Z,21.17
2018-08-11T00:59:25.336Z,20.90
2018-08-11T01:01:36.965Z,19.70
2018-08-11T01:03:47.982Z,20.10
2018-08-11T01:05:59.043Z,21.33
2018-08-11T01:08:09.807Z,20.30
2018-08-11T01:10:21.079Z,21.00
2018-08-11T01:12:32.088Z,20.40
2018-08-11T01:14:43.247Z,20.30
2018-08-11T01:16:57.710Z,19.20
2018-08-11T01:19:08.455Z,18.90
2018-08-11T01:21:20.691Z,18.90
2018-08-11T01:23:32.650Z,18.13
2018-08-11T01:25:43.746Z,19.70
2018-08-11T01:27:54.712Z,19.43
2018-08-11T01:30:05.569Z,20.17
2018-08-11T01:32:16.574Z,19.47
2018-08-11T01:34:27.600Z,20.10
2018-08-11T01:36:38.549Z,19.17
2018-08-11T01:38:49.511Z,19.23
2018-08-11T01:41:00.242Z,18.87
2018-08-11T01:43:11.230Z,18.77
2018-08-11T01:45:22.745Z,18.60
2018-08-11T01:47:33.608Z,19.03
2018-08-11T01:49:44.788Z,17.60
2018-08-11T01:51:55.981Z,17.63
2018-08-11T01:54:07.079Z,18.00
2018-08-11T01:56:17.846Z,19.20
2018-08-11T01:58:28.902Z,18.30
2018-08-11T02:00:39.745Z,18.90
2018-08-11T02:02:50.503Z,17.63
2018-08-11T02:05:01.674Z,16.73
2018-08-11T02:07:12.946Z,17.37
2018-08-11T02:09:23.681Z,17.97
2018-08-11T02:11:34.796Z,17.77
2018-08-11T02:13:45.945Z,18.20
2018-08-11T02:15:56.926Z,17.80
2018-08-11T02:18:07.804Z,16.00
2018-08-11T02:20:20.500Z,17.93
2018-08-11T02:22:31.410Z,17.70
2018-08-11T02:24:42.567Z,17.07
2018-08-11T02:26:53.817Z,18.33
2018-08-11T02:29:05.032Z,27.37
2018-08-11T02:31:15.927Z,22.90
2018-08-11T02:33:26.752Z,20.50
2018-08-11T02:35:37.516Z,21.57
2018-08-11T02:37:48.585Z,21.10
2018-08-11T02:39:59.464Z,20.43
2018-08-11T02:42:10.475Z,21.57
2018-08-11T02:44:21.762Z,21.30
2018-08-11T02:46:32.920Z,21.47
2018-08-11T02:48:43.902Z,20.83
2018-08-11T02:50:55.001Z,22.30
2018-08-11T02:53:06.079Z,21.10
2018-08-11T02:55:16.695Z,21.33
2018-08-11T02:57:27.754Z,20.77
2018-08-11T02:59:38.642Z,20.00
2018-08-11T03:01:49.352Z,20.47
2018-08-11T03:04:00.577Z,20.00
2018-08-11T03:06:11.521Z,18.80
2018-08-11T03:08:22.440Z,20.87
2018-08-11T03:10:33.458Z,20.43
2018-08-11T03:12:44.522Z,19.03
2018-08-11T03:14:55.686Z,20.27
2018-08-11T03:17:06.745Z,20.33
2018-08-11T03:19:17.710Z,20.10
2018-08-11T03:21:29.955Z,19.60
2018-08-11T03:23:41.200Z,19.60
2018-08-11T03:25:53.348Z,20.17
2018-08-11T03:28:05.636Z,18.87
2018-08-11T03:30:16.802Z,19.00
2018-08-11T03:32:27.975Z,19.17
2018-08-11T03:34:39.065Z,17.90
2018-08-11T03:36:51.029Z,19.87
2018-08-11T03:39:01.809Z,16.77
2018-08-11T03:41:12.518Z,18.60
2018-08-11T03:43:24.740Z,18.40
2018-08-11T03:45:37.155Z,17.73
2018-08-11T03:47:48.209Z,18.87
2018-08-11T03:50:00.323Z,17.30
2018-08-11T03:52:11.461Z,18.17
2018-08-11T03:54:22.550Z,18.40
2018-08-11T03:56:33.556Z,17.80
2018-08-11T03:58:44.368Z,18.03
2018-08-11T04:00:55.228Z,17.73
2018-08-11T04:03:07.501Z,17.70
2018-08-11T04:05:18.630Z,17.50
2018-08-11T04:07:29.809Z,16.90
2018-08-11T04:09:40.795Z,17.07
2018-08-11T04:11:51.434Z,16.67
2018-08-11T04:14:02.637Z,15.50
2018-08-11T04:16:13.835Z,16.50
2018-08-11T04:18:24.738Z,16.23
2018-08-11T04:20:35.629Z,15.60
2018-08-11T04:22:46.817Z,17.40
2018-08-11T04:24:59.213Z,16.60
2018-08-11T04:27:11.543Z,15.73
2018-08-11T04:29:22.610Z,15.80
2018-08-11T04:31:34.525Z,16.20
2018-08-11T04:33:45.502Z,16.23
2018-08-11T04:35:56.432Z,15.43
2018-08-11T04:38:08.894Z,15.13
2018-08-11T04:40:19.916Z,15.30
2018-08-11T04:42:30.938Z,15.37
2018-08-11T04:44:41.974Z,15.03
2018-08-11T04:46:52.981Z,14.40
2018-08-11T04:49:04.000Z,14.67
2018-08-11T04:51:14.972Z,16.20
2018-08-11T04:53:26.013Z,14.80
2018-08-11T04:55:37.306Z,14.10
2018-08-11T04:57:48.190Z,14.80
2018-08-11T04:59:59.571Z,15.00
2018-08-11T05:02:10.587Z,13.00
2018-08-11T05:04:21.679Z,14.40
2018-08-11T05:06:33.291Z,14.40
2018-08-11T05:08:43.986Z,14.90
2018-08-11T05:10:55.044Z,12.83
2018-08-11T05:13:06.131Z,14.10
2018-08-11T05:15:17.054Z,13.27
2018-08-11T05:17:28.374Z,12.60
2018-08-11T05:19:39.422Z,13.43
2018-08-11T05:21:50.404Z,13.93
2018-08-11T05:24:01.387Z,12.63
2018-08-11T05:26:12.137Z,13.07
2018-08-11T05:28:23.100Z,13.57
2018-08-11T05:30:34.155Z,13.60
2018-08-11T05:32:44.959Z,12.67
2018-08-11T05:34:56.486Z,14.00
2018-08-11T05:37:07.343Z,13.70
2018-08-11T05:39:19.271Z,12.77
2018-08-11T05:41:30.332Z,13.17
2018-08-11T05:43:41.208Z,13.00
2018-08-11T05:45:52.004Z,12.07
2018-08-11T05:48:02.948Z,13.03
2018-08-11T05:50:13.790Z,13.13
2018-08-11T05:52:24.511Z,14.20
2018-08-11T05:54:35.547Z,12.73
2018-08-11T05:56:46.812Z,12.70
2018-08-11T05:58:57.760Z,14.13
2018-08-11T06:01:08.661Z,12.67
2018-08-11T06:03:19.690Z,12.77
2018-08-11T06:05:30.840Z,13.10
2018-08-11T06:07:42.996Z,12.77
2018-08-11T06:09:54.180Z,12.50
2018-08-11T06:12:05.115Z,13.10
2018-08-11T06:14:16.014Z,13.63
2018-08-11T06:16:26.834Z,13.17
2018-08-11T06:18:37.689Z,12.83
2018-08-11T06:20:48.875Z,13.07
2018-08-11T06:22:59.417Z,13.77
2018-08-11T06:25:11.579Z,12.43
2018-08-11T06:27:22.469Z,12.23
2018-08-11T06:29:33.430Z,11.70
2018-08-11T06:31:44.753Z,12.27
2018-08-11T06:33:55.823Z,12.90
2018-08-11T06:36:06.792Z,12.13
2018-08-11T06:38:17.553Z,12.63
2018-08-11T06:40:28.811Z,11.47
2018-08-11T06:42:39.592Z,11.80
2018-08-11T06:44:50.406Z,12.30
2018-08-11T06:47:01.610Z,12.50
2018-08-11T06:49:12.771Z,11.00
2018-08-11T06:51:23.948Z,11.90
2018-08-11T06:53:34.612Z,12.30
2018-08-11T06:55:45.519Z,11.37
2018-08-11T06:57:56.591Z,11.93
2018-08-11T07:00:07.363Z,11.00
2018-08-11T07:02:18.318Z,11.70
2018-08-11T07:04:29.411Z,11.17
2018-08-11T07:06:40.578Z,10.77
2018-08-11T07:08:51.441Z,11.50
2018-08-11T07:11:02.437Z,10.73
2018-08-11T07:13:13.436Z,10.70
2018-08-11T07:15:24.354Z,10.40
2018-08-11T07:17:34.891Z,9.70
2018-08-11T07:19:46.885Z,11.30
2018-08-11T07:21:57.727Z,11.17
2018-08-11T07:24:08.586Z,10.80
2018-08-11T07:26:20.712Z,10.90
2018-08-11T07:28:31.600Z,10.83
2018-08-11T07:30:42.345Z,10.90
2018-08-11T07:32:53.087Z,11.87
2018-08-11T07:35:03.897Z,10.10
2018-08-11T07:37:14.958Z,10.57
2018-08-11T07:39:25.825Z,11.60
2018-08-11T07:41:36.948Z,10.83
2018-08-11T07:43:47.723Z,10.87
2018-08-11T07:45:58.597Z,10.70
2018-08-11T07:48:10.613Z,9.93
2018-08-11T07:50:21.767Z,11.00
2018-08-11T07:52:32.538Z,10.60
2018-08-11T07:54:43.240Z,10.90
2018-08-11T07:56:54.233Z,11.17
2018-08-11T07:59:05.242Z,9.00
2018-08-11T08:01:16.158Z,10.07
2018-08-11T08:03:26.951Z,10.00
2018-08-11T08:05:39.110Z,10.53
2018-08-11T08:07:50.052Z,10.73
2018-08-11T08:10:01.245Z,10.40
2018-08-11T08:12:11.954Z,10.70
2018-08-11T08:14:22.748Z,9.90
2018-08-11T08:16:33.674Z,10.23
2018-08-11T08:18:44.532Z,9.77
2018-08-11T08:20:55.134Z,9.90
2018-08-11T08:23:06.090Z,10.10
2018-08-11T08:25:17.500Z,11.10
2018-08-11T08:27:28.687Z,9.93
2018-08-11T08:29:39.632Z,9.83
2018-08-11T08:31:50.793Z,8.43
2018-08-11T08:34:03.382Z,10.50
2018-08-11T08:36:14.201Z,9.90
2018-08-11T08:38:25.291Z,10.77
2018-08-11T08:40:36.208Z,9.37
2018-08-11T08:42:47.181Z,9.33
2018-08-11T08:44:59.189Z,9.10
2018-08-11T08:47:10.065Z,9.67
2018-08-11T08:49:20.930Z,9.90
2018-08-11T08:51:31.902Z,10.20
2018-08-11T08:53:42.973Z,10.13
2018-08-11T08:55:53.941Z,9.60
2018-08-11T08:58:05.045Z,8.87
2018-08-11T09:00:15.656Z,9.30
2018-08-11T09:02:26.718Z,9.93
2018-08-11T09:04:37.628Z,9.07
2018-08-11T09:06:48.475Z,10.00
2018-08-11T09:08:59.583Z,9.77
2018-08-11T09:11:10.632Z,9.80
2018-08-11T09:13:21.680Z,10.07
2018-08-11T09:15:32.818Z,9.87
2018-08-11T09:17:43.838Z,10.30
2018-08-11T09:19:54.815Z,9.53
2018-08-11T09:22:05.818Z,9.30
2018-08-11T09:24:16.688Z,9.13
2018-08-11T09:26:27.712Z,9.63
2018-08-11T09:28:38.602Z,9.43
2018-08-11T09:30:49.537Z,9.50
2018-08-11T09:33:00.571Z,9.70
2018-08-11T09:35:11.501Z,9.83
2018-08-11T09:37:22.615Z,9.30
2018-08-11T09:39:33.551Z,9.53
2018-08-11T09:41:45.795Z,9.90
2018-08-11T09:43:56.579Z,10.00
2018-08-11T09:46:07.724Z,10.00
2018-08-11T09:48:18.896Z,9.33
2018-08-11T09:50:29.799Z,9.47
2018-08-11T09:52:40.841Z,9.23
2018-08-11T09:54:51.709Z,10.00
2018-08-11T09:57:02.755Z,9.77
2018-08-11T09:59:13.498Z,8.40
2018-08-11T10:01:28.766Z,8.60
2018-08-11T10:03:40.059Z,8.20
2018-08-11T10:05:51.086Z,9.77
2018-08-11T10:08:02.032Z,9.43
2018-08-11T10:10:13.084Z,9.53
2018-08-11T10:12:24.144Z,10.20
2018-08-11T10:14:35.169Z,13.20
2018-08-11T10:16:46.310Z,11.90
2018-08-11T10:18:57.240Z,11.00
2018-08-11T10:21:08.319Z,11.03
2018-08-11T10:23:19.351Z,10.83
2018-08-11T10:25:30.291Z,11.43
2018-08-11T10:27:41.156Z,10.40
2018-08-11T10:29:52.119Z,9.93
2018-08-11T10:32:02.917Z,10.50
2018-08-11T10:34:13.665Z,11.30
2018-08-11T10:36:24.668Z,10.97
2018-08-11T10:38:35.767Z,10.73
2018-08-11T10:40:46.464Z,10.73
2018-08-11T10:42:57.490Z,10.80
2018-08-11T10:45:08.360Z,10.77
2018-08-11T10:47:19.336Z,10.30
2018-08-11T10:49:30.290Z,10.20
2018-08-11T10:51:41.171Z,10.13
2018-08-11T10:53:52.092Z,10.07
2018-08-11T10:56:03.200Z,9.00
2018-08-11T10:58:14.322Z,9.40
2018-08-11T11:00:25.329Z,9.40
2018-08-11T11:02:36.205Z,9.63
2018-08-11T11:04:47.098Z,10.93
2018-08-11T11:06:58.121Z,10.03
2018-08-11T11:09:09.199Z,11.10
2018-08-11T11:11:20.172Z,11.57
2018-08-11T11:13:31.014Z,11.10
2018-08-11T11:15:41.746Z,11.23
2018-08-11T11:17:52.533Z,11.03
2018-08-11T11:20:03.419Z,11.63
2018-08-11T11:22:14.286Z,12.57
2018-08-11T11:24:24.958Z,11.20
2018-08-11T11:26:35.678Z,10.90
2018-08-11T11:28:46.425Z,11.93
2018-08-11T11:30:57.416Z,12.10
2018-08-11T11:33:08.496Z,11.23
2018-08-11T11:35:19.442Z,13.20
2018-08-11T11:37:30.429Z,16.07
2018-08-11T11:39:41.480Z,14.90
2018-08-11T11:41:52.595Z,15.30
2018-08-11T11:44:03.612Z,15.47
2018-08-11T11:46:14.571Z,13.83
2018-08-11T11:48:25.620Z,14.50
2018-08-11T11:50:36.630Z,14.70
2018-08-11T11:52:47.549Z,14.33
2018-08-11T11:54:58.478Z,14.03
2018-08-11T11:57:09.452Z,13.77
2018-08-11T11:59:20.229Z,13.57
2018-08-11T12:01:31.155Z,12.60
2018-08-11T12:03:42.102Z,14.27
2018-08-11T12:05:53.308Z,14.50
2018-08-11T12:08:04.254Z,14.93
2018-08-11T12:10:14.948Z,15.00
2018-08-11T12:12:25.838Z,14.33
2018-08-11T12:14:36.793Z,16.83
2018-08-11T12:16:47.785Z,22.87
2018-08-11T12:18:58.925Z,38.07
2018-08-11T12:21:09.729Z,29.13
2018-08-11T12:23:20.848Z,27.70
2018-08-11T12:25:31.658Z,30.73
2018-08-11T12:27:42.777Z,31.53
2018-08-11T12:29:53.664Z,32.70
2018-08-11T12:32:04.536Z,32.20
2018-08-11T12:34:16.692Z,30.80
2018-08-11T12:36:27.544Z,31.00
2018-08-11T12:38:38.380Z,31.33
2018-08-11T12:40:49.293Z,29.90
2018-08-11T12:43:00.195Z,28.93
2018-08-11T12:45:11.166Z,29.50
2018-08-11T12:47:22.388Z,28.27
2018-08-11T12:49:33.367Z,28.33
2018-08-11T12:51:44.284Z,27.30
2018-08-11T12:53:55.618Z,29.90
2018-08-11T12:56:06.702Z,29.03
2018-08-11T12:58:17.480Z,27.83
2018-08-11T13:00:28.500Z,27.53
2018-08-11T13:02:39.380Z,28.77
2018-08-11T13:04:50.300Z,26.43
2018-08-11T13:07:01.452Z,28.20
2018-08-11T13:11:54.981Z,30.20
2018-08-11T13:14:05.792Z,28.13
2018-08-11T13:16:16.727Z,30.03
2018-08-11T13:18:27.705Z,29.57
2018-08-11T13:20:39.012Z,33.50
2018-08-11T13:22:50.062Z,32.83
2018-08-11T13:25:01.042Z,33.07
2018-08-11T13:27:12.011Z,33.20
2018-08-11T13:29:22.736Z,31.87
2018-08-11T13:31:33.586Z,31.87
2018-08-11T13:33:44.327Z,32.10
2018-08-11T13:35:55.189Z,31.30
2018-08-11T13:38:06.231Z,30.77
2018-08-11T13:40:17.212Z,28.97
2018-08-11T13:42:28.199Z,30.57
2018-08-11T13:44:39.305Z,29.17
2018-08-11T13:46:50.373Z,30.23
2018-08-11T13:49:01.415Z,27.03
2018-08-11T13:51:12.544Z,28.07
2018-08-11T13:53:23.315Z,26.90
2018-08-11T13:55:34.392Z,26.00
2018-08-11T13:57:45.315Z,26.83
2018-08-11T13:59:55.970Z,26.80
2018-08-11T14:02:06.815Z,27.30
2018-08-11T14:04:17.668Z,26.47
2018-08-11T14:06:28.551Z,27.00
2018-08-11T14:08:39.672Z,27.90
2018-08-11T14:10:50.758Z,26.30
2018-08-11T14:13:01.736Z,25.57
2018-08-11T14:15:12.595Z,25.63
2018-08-11T14:17:23.355Z,26.50
2018-08-11T14:19:34.300Z,25.67
2018-08-11T14:21:45.137Z,24.30
2018-08-11T14:23:57.022Z,26.63
2018-08-11T14:26:08.076Z,25.07
2018-08-11T14:28:18.986Z,24.90
2018-08-11T14:30:29.943Z,26.63
2018-08-11T14:32:41.027Z,25.67
2018-08-11T14:34:52.241Z,26.90
2018-08-11T14:37:03.405Z,24.80
2018-08-11T14:39:14.542Z,25.10
2018-08-11T14:41:25.434Z,26.27
2018-08-11T14:43:36.685Z,25.30
2018-08-11T14:45:47.820Z,25.97
2018-08-11T14:47:58.862Z,25.43
2018-08-11T14:50:10.123Z,25.97
2018-08-11T14:52:21.274Z,25.83
2018-08-11T14:54:32.105Z,26.77
2018-08-11T14:56:43.208Z,25.47
2018-08-11T14:58:54.219Z,24.00
2018-08-11T15:01:05.219Z,25.97
2018-08-11T15:03:16.240Z,26.30
2018-08-11T15:05:27.243Z,25.13
2018-08-11T15:07:38.187Z,25.90
2018-08-11T15:09:49.149Z,30.83
2018-08-11T15:12:00.546Z,33.23
2018-08-11T15:16:53.745Z,36.20
2018-08-11T15:19:04.865Z,38.30
2018-08-11T15:21:17.046Z,42.47
2018-08-11T15:23:28.183Z,41.20
2018-08-11T15:25:39.003Z,40.13
2018-08-11T15:30:14.889Z,44.93
2018-08-11T15:32:25.695Z,41.70
2018-08-11T15:34:36.417Z,45.33
2018-08-11T15:36:47.617Z,38.80
2018-08-11T15:38:58.673Z,37.80
2018-08-11T15:41:09.768Z,38.23
2018-08-11T15:43:20.806Z,35.70
2018-08-11T15:45:31.878Z,36.30
2018-08-11T15:47:42.726Z,37.37
2018-08-11T15:49:53.858Z,41.00
2018-08-11T15:52:04.976Z,40.27
2018-08-11T15:54:16.166Z,40.03
2018-08-11T15:56:27.264Z,39.63
2018-08-11T15:58:38.058Z,40.60
2018-08-11T16:00:48.728Z,36.97
2018-08-11T16:03:00.774Z,37.50
2018-08-11T16:05:11.503Z,36.67
2018-08-11T16:07:22.364Z,33.80
2018-08-11T16:09:33.361Z,33.73
2018-08-11T16:11:43.932Z,32.73
2018-08-11T16:13:55.693Z,33.03
2018-08-11T16:16:06.897Z,31.37
2018-08-11T16:18:17.572Z,31.30
2018-08-11T16:20:28.499Z,31.80
2018-08-11T16:22:39.590Z,30.10
2018-08-11T16:24:50.626Z,29.20
2018-08-11T16:27:02.497Z,29.00
2018-08-11T16:29:14.695Z,28.00
2018-08-11T16:31:26.163Z,27.70
2018-08-11T16:33:37.157Z,27.40
2018-08-11T16:35:48.558Z,27.93
2018-08-11T16:37:59.500Z,26.67
2018-08-11T16:40:10.326Z,26.73
2018-08-11T16:42:21.264Z,25.83
2018-08-11T16:44:32.251Z,27.70
2018-08-11T16:46:43.365Z,26.90
2018-08-11T16:48:54.459Z,25.67
2018-08-11T16:51:05.382Z,28.10
2018-08-11T16:53:16.280Z,26.10
2018-08-11T16:55:27.156Z,26.40
2018-08-11T16:57:37.937Z,24.90
2018-08-11T16:59:48.495Z,24.77
2018-08-11T17:01:59.338Z,27.93
2018-08-11T17:04:10.299Z,26.37
2018-08-11T17:06:21.720Z,25.67
2018-08-11T17:08:32.877Z,25.03
2018-08-11T17:10:43.712Z,24.47
2018-08-11T17:12:54.535Z,27.23
2018-08-11T17:15:05.603Z,25.57
2018-08-11T17:17:16.286Z,28.23
2018-08-11T17:19:27.101Z,26.47
2018-08-11T17:21:37.795Z,25.00
2018-08-11T17:23:48.643Z,25.23
2018-08-11T17:25:59.949Z,25.47
2018-08-11T17:28:11.053Z,25.67
2018-08-11T17:30:22.277Z,25.37
2018-08-11T17:32:33.377Z,23.90
2018-08-11T17:34:44.411Z,24.77
2018-08-11T17:36:56.096Z,24.20
2018-08-11T17:39:07.229Z,23.33
2018-08-11T17:41:18.223Z,22.17
2018-08-11T17:43:28.725Z,23.43
2018-08-11T17:45:40.750Z,23.40
2018-08-11T17:47:51.508Z,23.23
2018-08-11T17:50:02.288Z,22.70
2018-08-11T17:52:13.073Z,24.50
2018-08-11T17:54:23.801Z,24.50
2018-08-11T17:56:34.785Z,22.97
2018-08-11T17:58:47.376Z,23.50
2018-08-11T18:00:58.338Z,22.93
2018-08-11T18:03:09.360Z,21.97
2018-08-11T18:05:20.535Z,22.37
2018-08-11T18:07:31.592Z,21.83
2018-08-11T18:09:42.453Z,22.87
2018-08-11T18:11:53.345Z,23.93
2018-08-11T18:14:03.883Z,21.53
2018-08-11T18:16:14.713Z,21.70
2018-08-11T18:18:25.342Z,21.77
2018-08-11T18:20:36.252Z,23.13
2018-08-11T18:22:47.160Z,21.87
2018-08-11T18:24:58.221Z,23.43
2018-08-11T18:27:09.265Z,22.23
2018-08-11T18:29:20.090Z,23.03
2018-08-11T18:31:31.139Z,23.40
2018-08-11T18:33:41.986Z,22.80
2018-08-11T18:35:53.958Z,23.47
2018-08-11T18:38:05.020Z,23.40
2018-08-11T18:40:15.791Z,24.17
2018-08-11T18:42:26.918Z,23.00
2018-08-11T18:44:37.780Z,23.20
2018-08-11T18:46:48.814Z,23.57
2018-08-11T18:48:59.460Z,22.70
2018-08-11T18:51:10.261Z,22.30
2018-08-11T18:53:21.389Z,22.20
2018-08-11T18:55:32.096Z,22.60
2018-08-11T18:57:42.878Z,22.10
2018-08-11T18:59:53.503Z,22.10
2018-08-11T19:02:04.382Z,20.63
2018-08-11T19:04:15.301Z,21.07
2018-08-11T19:06:26.510Z,22.20
2018-08-11T19:08:37.551Z,21.33
2018-08-11T19:10:48.640Z,21.43
2018-08-11T19:12:59.566Z,21.47
2018-08-11T19:15:11.013Z,22.00
2018-08-11T19:17:22.158Z,21.80
2018-08-11T19:19:33.227Z,20.40
2018-08-11T19:21:44.157Z,23.80
2018-08-11T19:23:55.046Z,72.43
2018-08-11T19:26:06.149Z,577.97
2018-08-11T19:28:17.131Z,576.33
2018-08-11T19:30:28.225Z,189.03
2018-08-11T19:32:39.494Z,99.23
2018-08-11T19:34:50.462Z,85.67
2018-08-11T19:37:01.481Z,78.03
2018-08-11T19:39:13.765Z,82.87
2018-08-11T19:41:24.636Z,76.53
2018-08-11T19:43:35.830Z,77.87
2018-08-11T19:45:46.404Z,71.80
2018-08-11T19:47:57.206Z,67.50
2018-08-11T19:50:08.085Z,64.70
2018-08-11T19:52:19.105Z,63.70
2018-08-11T19:54:29.821Z,60.60
2018-08-11T19:56:40.829Z,56.57
2018-08-11T19:58:52.044Z,54.10
2018-08-11T20:01:02.787Z,58.52
2018-08-11T20:03:13.542Z,54.37
2018-08-11T20:05:24.306Z,52.10
2018-08-11T20:07:35.470Z,51.00
2018-08-11T20:09:46.512Z,50.10
2018-08-11T20:11:57.506Z,49.80
2018-08-11T20:14:08.156Z,48.23
2018-08-11T20:16:18.950Z,45.17
2018-08-11T20:18:30.346Z,44.13
2018-08-11T20:20:41.592Z,39.50
2018-08-11T20:22:52.661Z,37.40
2018-08-11T20:25:03.775Z,35.80
2018-08-11T20:27:14.876Z,34.43
2018-08-11T20:29:25.886Z,32.10
2018-08-11T20:31:36.948Z,31.43
2018-08-11T20:33:47.816Z,32.67
2018-08-11T20:35:58.667Z,32.10
2018-08-11T20:38:09.668Z,30.30
2018-08-11T20:40:20.595Z,30.00
2018-08-11T20:42:31.630Z,28.67
2018-08-11T20:44:42.449Z,29.60
2018-08-11T20:46:53.392Z,27.57
2018-08-11T20:49:04.511Z,27.07
2018-08-11T20:51:15.611Z,26.77
2018-08-11T20:53:26.597Z,25.37
2018-08-11T20:55:37.303Z,26.00
2018-08-11T20:57:48.539Z,24.40
2018-08-11T20:59:59.400Z,25.63
2018-08-11T21:02:10.061Z,24.50
2018-08-11T21:04:21.308Z,25.47
2018-08-11T21:06:32.339Z,26.80
2018-08-11T21:08:43.153Z,25.30
2018-08-11T21:10:54.164Z,25.20
2018-08-11T21:13:05.019Z,23.57
2018-08-11T21:15:17.218Z,21.40
2018-08-11T21:17:28.311Z,21.07
2018-08-11T21:19:39.062Z,21.87
2018-08-11T21:21:50.062Z,22.37
2018-08-11T21:24:01.077Z,20.53
2018-08-11T21:26:11.887Z,21.07
2018-08-11T21:28:22.715Z,22.23
2018-08-11T21:30:33.637Z,21.60
2018-08-11T21:32:44.584Z,22.50
2018-08-11T21:34:55.894Z,21.53
2018-08-11T21:37:07.029Z,20.00
2018-08-11T21:39:17.992Z,21.00
2018-08-11T21:41:28.829Z,20.77
2018-08-11T21:43:39.646Z,19.70
2018-08-11T21:45:50.533Z,20.53
2018-08-11T21:48:01.719Z,20.13
2018-08-11T21:50:12.625Z,19.57
2018-08-11T21:52:23.480Z,18.50
2018-08-11T21:54:34.231Z,17.50
2018-08-11T21:56:45.387Z,18.40
2018-08-11T21:58:56.530Z,18.90
2018-08-11T22:01:07.630Z,16.90
2018-08-11T22:03:18.892Z,16.63
2018-08-11T22:05:30.099Z,17.40
2018-08-11T22:07:41.015Z,17.37
2018-08-11T22:09:52.582Z,10.90
2018-08-11T22:12:03.859Z,7.63
2018-08-11T22:14:14.880Z,7.43
2018-08-11T22:16:26.003Z,6.37
2018-08-11T22:18:36.931Z,4.97
2018-08-11T22:20:48.057Z,5.60
2018-08-11T22:22:59.082Z,4.60
2018-08-11T22:25:10.230Z,4.37
2018-08-11T22:27:21.649Z,4.83
2018-08-11T22:29:32.791Z,4.27
2018-08-11T22:31:45.188Z,3.73
2018-08-11T22:33:56.149Z,4.10
2018-08-11T22:36:08.079Z,3.20
2018-08-11T22:38:19.249Z,4.30
2018-08-11T22:40:30.482Z,4.00
2018-08-11T22:42:55.621Z,3.33
2018-08-11T22:45:06.629Z,3.33
2018-08-11T22:47:17.503Z,2.60
2018-08-11T22:49:28.642Z,3.43
2018-08-11T22:51:39.773Z,2.50
2018-08-11T22:53:50.689Z,3.77
2018-08-11T22:56:01.714Z,3.37
2018-08-11T22:58:12.547Z,3.93
2018-08-11T23:00:24.194Z,3.10
2018-08-11T23:02:35.396Z,3.53
2018-08-11T23:04:46.558Z,2.70
2018-08-11T23:06:57.740Z,2.80
2018-08-11T23:09:08.592Z,2.90
2018-08-11T23:11:19.496Z,3.90
2018-08-11T23:13:30.353Z,3.87
2018-08-11T23:15:41.188Z,3.73
2018-08-11T23:17:52.828Z,4.30
2018-08-11T23:20:03.719Z,4.20
2018-08-11T23:22:14.807Z,4.50
2018-08-11T23:24:25.674Z,3.67
2018-08-11T23:26:36.913Z,6.93
2018-08-11T23:28:48.323Z,5.30
2018-08-11T23:30:59.135Z,4.63
2018-08-11T23:33:09.894Z,3.73
2018-08-11T23:35:21.095Z,4.13
2018-08-11T23:37:32.404Z,4.30
2018-08-11T23:39:44.365Z,3.80
2018-08-11T23:41:55.554Z,4.10
2018-08-11T23:44:06.774Z,4.70
2018-08-11T23:46:17.678Z,3.50
2018-08-11T23:48:28.683Z,3.77
2018-08-11T23:50:39.377Z,4.17
2018-08-11T23:52:50.300Z,4.33
2018-08-11T23:55:01.428Z,3.87
2018-08-11T23:57:12.505Z,3.57
2018-08-11T23:59:24.323Z,3.43
